Details From LEPA - Palma De Mallorca
To GCLA - La Palma
Flight Number -
Tags Generated
Created
Modified
Stats Distance 1,209 nm / 2,239 km
Max Altitude 0 ft / 0 m
Waypoints 5
Social Downloads 5
Likes 0
Share VATSIM

Download

Looking for another format? Having issues loading an existing format? Contact us
Advertisement - Login to hide

Notes

Generated

Route

LEPA ROMSO SAMAR BX GCLA

ID Type Via Altitude Latitude Longitude Leg Dist Tot Dist Heading (true) Name
O LEPA APT - 0 ft / 0 m 39.54873˚ 2.71867˚ - 0 nm - -
ROMSO FIX - 0 ft / 0 m 35.45056˚ -6.47333˚ 502 nm 502 nm 244° / 238° -
SAMAR FIX - 0 ft / 0 m 30.89972˚ -14.41556˚ 483 nm 985 nm 238° / 233° -
BX NDB - 0 ft / 0 m 28.60169˚ -17.75684˚ 222 nm 1207 nm 232° / 231° LA PALMA NDB
O GCLA APT - 0 ft / 0 m 28.61659˚ -17.75542˚ 0 nm 1208 nm 5° / 5° -

Altitude Profile

Advertisement - Login to hide

Weather


0- 5 10 15 20 25 30 35+ Temperature / ° C

Clouds and Precipitation
Forecast for 2017-12-14 06:00 UTC. Updated an hour ago

Ground ~20,000 ft ~40,000 ft Winds

LEPA

Details ICAO LEPA (PMI)
Name Palma De Mallorca
Region Spain
Timezone Europe/Madrid (UTC+1.0)
Stats Elevation 24 ft / 7 m (AMSL)
Location 39.552536° 2.734958°
Runways 3
Magnetic Variation 0.986° E

METAR

LEPA 140600Z 23011KT 9999 FEW026 14/09 Q1019 NOSIG

Decode

TAF

TAF TAF LEPA 140500Z 1406/1506 25012KT 9999 FEW020 TX17/1412Z TN11/1406Z PROB30 TEMPO 1406/1418 25014G24KT PROB40 TEMPO 1418/1506 25015G25KT PROB30 TEMPO 1503/1506 RA BKN020

Decode

Departure Runways

ID Width Length Bearing (true) Bearing (mag) Surface Threshold Offset Overrun Length
06C 148 ft / 45 m 8,181 ft / 2,494 m 58.47° 57.48° Asphalt 0 ft / 0 m 0 ft / 0 m
06L 148 ft / 45 m 10,716 ft / 3,266 m 58.46° 57.47° Asphalt 0 ft / 0 m 0 ft / 0 m
06R 148 ft / 45 m 9,832 ft / 2,997 m 58.48° 57.49° Asphalt 1,345 ft / 410 m 0 ft / 0 m
24C 148 ft / 45 m 8,181 ft / 2,494 m 238.49° 237.50° Asphalt 0 ft / 0 m 0 ft / 0 m
24L 148 ft / 45 m 9,832 ft / 2,997 m 238.50° 237.51° Asphalt 0 ft / 0 m 197 ft / 60 m
24R 148 ft / 45 m 10,716 ft / 3,266 m 238.48° 237.49° Asphalt 230 ft / 70 m 0 ft / 0 m

GCLA

Details ICAO GCLA (SPC)
Name La Palma
Region Canary Islands
Timezone Atlantic/Canary (UTC+0.0)
Stats Elevation 107 ft / 33 m (AMSL)
Location 28.626480° -17.755613°
Runways 1
Magnetic Variation 5.522° W

METAR

GCLA 140600Z AUTO 02007KT 350V080 9000 BKN035/// 19/12 Q1026

Decode

TAF

TAF GCLA 140200Z 1403/1503 02015KT 9999 SCT030 TX20/1414Z TN17/1406Z PROB40 TEMPO 1403/1406 02015G25KT

Decode

Destination Runways

ID Width Length Bearing (true) Bearing (mag) Surface Threshold Offset Overrun Length
01 148 ft / 45 m 7,240 ft / 2,207 m 359.02° 4.54° Asphalt 0 ft / 0 m 279 ft / 85 m
19 148 ft / 45 m 7,240 ft / 2,207 m 179.02° 184.54° Asphalt 0 ft / 0 m 236 ft / 72 m

Popular Alternatives